LS Concorde — ZDHJ7 — position and weather

sailwx.info

Track history (hours):
 
Tides and Currents Weather Stations Pressure Air Temp Water Temp Dewpoint Dewpoint Depression Visibility Wind Speed Wind Dir Waves Ship Positions

LS Concorde

Last reported at 2017-Apr-25 20:37 UTC. Time now 2017-Apr-26 04:15 UTC.
Position N 52°03' E 003°37'.

Length 99 m; draft 6.1 m.

Type: Tanker. MMSI: 236329000.

Date/timePositionNaut miles runAvg speedWind from/ knotsBaromVisibWave heightAir tempDewpointWater temp
2017-Apr-25 20:37N 52°03' E 003°37'112.1
2017-Apr-25 20:30N 52°03' E 003°39'611.8
2017-Apr-25 20:00N 52°04' E 003°48'4 8.9
2017-Apr-25 19:30N 52°02' E 003°55'510.1
2017-Apr-25 19:00N 51°60' E 004°02'612.9
2017-Apr-25 18:30N 51°57' E 004°11'510.9
2017-Apr-25 18:00N 51°53' E 004°18'1 1.2
2017-Apr-25 17:30N 51°53' E 004°17'0 0.0
2017-Apr-25 17:00N 51°53' E 004°17'0 0.0
2017-Apr-25 16:30N 51°53' E 004°17'0 0.0
2017-Apr-25 16:00N 51°53' E 004°17'0 0.0
2017-Apr-25 15:30N 51°53' E 004°17'0 0.0
2017-Apr-25 15:00N 51°53' E 004°17'0 0.0
2017-Apr-25 14:00N 51°53' E 004°17'0 0.0
2017-Apr-25 13:30N 51°53' E 004°17'0 0.0
2017-Apr-25 13:00N 51°53' E 004°17'0 0.0
2017-Apr-25 12:30N 51°53' E 004°17'0 0.0
2017-Apr-25 12:00N 51°53' E 004°17'0 0.0
2017-Apr-25 11:30N 51°53' E 004°17'0 0.0
2017-Apr-25 11:00N 51°53' E 004°17'0 0.0
2017-Apr-25 10:30N 51°53' E 004°17'0 0.0
2017-Apr-25 10:00N 51°53' E 004°17'0 0.0
2017-Apr-25 09:30N 51°53' E 004°17'0 0.0
2017-Apr-25 09:00N 51°53' E 004°17'0 0.0
2017-Apr-25 08:24N 51°53' E 004°17'0 0.0
2017-Apr-25 08:00N 51°53' E 004°17'0 0.0
2017-Apr-25 07:27N 51°53' E 004°17'0 0.0
2017-Apr-25 07:00N 51°53' E 004°17'0 0.0
2017-Apr-25 06:30N 51°53' E 004°17'0 0.0
2017-Apr-25 06:00N 51°53' E 004°17'0 0.0
2017-Apr-25 05:30N 51°53' E 004°17'0 0.0
2017-Apr-25 05:00N 51°53' E 004°17'0 0.0
2017-Apr-25 04:30N 51°53' E 004°17'0 0.0
2017-Apr-25 04:00N 51°53' E 004°17'0 0.0
2017-Apr-25 03:30N 51°53' E 004°17'0 0.0
2017-Apr-25 03:00N 51°53' E 004°17'0 0.0
2017-Apr-25 02:30N 51°53' E 004°17'0 0.0
2017-Apr-25 02:00N 51°53' E 004°17'0 0.0
2017-Apr-25 01:30N 51°53' E 004°17'0 0.0
2017-Apr-25 01:00N 51°53' E 004°17'0 0.0
2017-Apr-25 00:30N 51°53' E 004°17'0 0.0
2017-Apr-25 00:00N 51°53' E 004°17'0 0.0
2017-Apr-24 23:30N 51°53' E 004°17'0 0.0
2017-Apr-24 23:00N 51°53' E 004°17'0 0.0
2017-Apr-24 22:30N 51°53' E 004°17'0 0.0
2017-Apr-24 22:00N 51°53' E 004°17'0 0.0
2017-Apr-24 21:30N 51°53' E 004°17'0 0.0
2017-Apr-24 21:00N 51°53' E 004°17'0 0.0
2017-Apr-24 20:30N 51°53' E 004°17'0 0.0
2017-Apr-24 20:00N 51°53' E 004°17'0 0.0
2017-Apr-24 19:30N 51°53' E 004°17'0 0.0
2017-Apr-24 19:00N 51°53' E 004°17'0 0.0
2017-Apr-24 18:30N 51°53' E 004°17'1 1.1
2017-Apr-24 18:00N 51°53' E 004°18'3 5.6
2017-Apr-24 17:30N 51°55' E 004°14'510.9
2017-Apr-24 17:00N 51°58' E 004°07'611.8
2017-Apr-24 16:30N 52°00' E 003°58'611.4
2017-Apr-24 16:00N 52°00' E 003°49'4 8.1
2017-Apr-24 15:30N 51°57' E 003°45'0 0.4
2017-Apr-24 15:00N 51°57' E 003°45'0 0.0
2017-Apr-24 14:30N 51°57' E 003°45'0 0.0
2017-Apr-24 13:30N 51°57' E 003°45'0 0.0
2017-Apr-24 13:00N 51°57' E 003°45'0 0.0
2017-Apr-24 12:30N 51°57' E 003°45'0 0.0
2017-Apr-24 12:00N 51°57' E 003°45'0 0.0
2017-Apr-24 11:30N 51°57' E 003°45'0 0.0
2017-Apr-24 11:00N 51°57' E 003°45'0 0.0
2017-Apr-24 10:30N 51°57' E 003°45'0 0.0
2017-Apr-24 10:00N 51°57' E 003°45'0 0.0
2017-Apr-24 09:30N 51°57' E 003°45'0 0.1
2017-Apr-24 09:00N 51°57' E 003°45'0 0.1
2017-Apr-24 08:30N 51°57' E 003°45'0 0.0
2017-Apr-24 08:01N 51°57' E 003°45'0 0.0
2017-Apr-24 07:30N 51°57' E 003°45'0 0.0
2017-Apr-24 07:00N 51°57' E 003°45'0 0.0
2017-Apr-24 06:30N 51°57' E 003°45'0 0.1
2017-Apr-24 06:00N 51°57' E 003°45'0 0.1
2017-Apr-24 05:30N 51°57' E 003°45'0 0.1
2017-Apr-24 05:00N 51°57' E 003°45'0 0.0
2017-Apr-24 04:30N 51°57' E 003°45'0 0.0
2017-Apr-24 04:00N 51°57' E 003°45'0 0.0
2017-Apr-24 03:29N 51°57' E 003°45'0 0.0
2017-Apr-24 03:00N 51°57' E 003°45'0 0.0
2017-Apr-24 02:30N 51°57' E 003°45'0 0.0
2017-Apr-24 02:00N 51°57' E 003°45'0 0.0
2017-Apr-24 01:30N 51°57' E 003°45'0 0.0
2017-Apr-24 01:00N 51°57' E 003°45'0 0.0
2017-Apr-24 00:30N 51°57' E 003°45'0 0.0
2017-Apr-24 00:00N 51°57' E 003°45'0 0.0
2017-Apr-23 23:30N 51°57' E 003°45'0 0.0
2017-Apr-23 23:00N 51°57' E 003°45'0 0.0
2017-Apr-23 22:30N 51°57' E 003°45'0 0.1
2017-Apr-23 21:57N 51°57' E 003°45'0 0.1
2017-Apr-23 21:30N 51°57' E 003°45'0 0.0
2017-Apr-23 21:00N 51°57' E 003°45'0 0.0
2017-Apr-23 20:30N 51°57' E 003°45'0 0.0
2017-Apr-23 20:00N 51°57' E 003°45'0 0.0
2017-Apr-23 19:30N 51°57' E 003°45'0 0.0
2017-Apr-23 19:00N 51°57' E 003°45'0 0.0
2017-Apr-23 18:30N 51°57' E 003°45'0 0.0
2017-Apr-23 18:00N 51°57' E 003°45'0 0.0
2017-Apr-23 17:30N 51°57' E 003°45'0 0.1
2017-Apr-23 17:00N 51°57' E 003°45'0 0.0
2017-Apr-23 16:30N 51°57' E 003°45'0 0.0
2017-Apr-23 16:00N 51°57' E 003°45'0 0.1
2017-Apr-23 15:29N 51°57' E 003°45'0 0.1
2017-Apr-23 15:00N 51°57' E 003°45'0 0.0
2017-Apr-23 14:00N 51°57' E 003°45'0 0.0
2017-Apr-23 13:30N 51°57' E 003°45'0 0.0
2017-Apr-23 13:00N 51°57' E 003°45'0 0.0
2017-Apr-23 12:30N 51°57' E 003°45'0 0.0
2017-Apr-23 12:00N 51°57' E 003°45'0 0.0
2017-Apr-23 11:30N 51°57' E 003°45'0 0.0
2017-Apr-23 11:00N 51°57' E 003°45'0 0.0
2017-Apr-23 10:30N 51°57' E 003°45'0 0.2
2017-Apr-23 10:00N 51°57' E 003°45'0 0.1
2017-Apr-23 09:30N 51°57' E 003°45'0 0.0
2017-Apr-23 09:00N 51°57' E 003°45'0 0.0
2017-Apr-23 08:30N 51°57' E 003°45'0 0.0
2017-Apr-23 08:00N 51°57' E 003°45'0 0.0
2017-Apr-23 07:30N 51°57' E 003°45'0 0.0
2017-Apr-23 07:00N 51°57' E 003°45'0 0.0
2017-Apr-23 06:30N 51°57' E 003°45'0 0.0
2017-Apr-23 06:00N 51°57' E 003°45'0 0.0
2017-Apr-23 05:30N 51°57' E 003°45'1 2.6
2017-Apr-23 05:00N 51°57' E 003°43'55 5.9
2017-Apr-22 19:49N 51°34' E 002°22'2 6.8
2017-Apr-22 19:30N 51°33' E 002°20'3 6.4
2017-Apr-22 18:59N 51°30' E 002°17'3 5.9
2017-Apr-22 18:30N 51°28' E 002°14'3 5.3
2017-Apr-22 18:00N 51°26' E 002°11'2 5.0
2017-Apr-22 17:30N 51°24' E 002°08'3 5.3
2017-Apr-22 17:00N 51°21' E 002°07'3 5.6
2017-Apr-22 16:31N 51°19' E 002°06'3 5.6
2017-Apr-22 16:00N 51°16' E 002°05'3 5.2
2017-Apr-22 15:30N 51°14' E 002°03'3 5.1
2017-Apr-22 15:00N 51°12' E 001°60'3 5.6
2017-Apr-22 14:30N 51°11' E 001°56'6 5.6
2017-Apr-22 13:30N 51°08' E 001°48'3 6.6
2017-Apr-22 13:00N 51°05' E 001°46'3 5.6
2017-Apr-22 12:31N 51°05' E 001°50'0 0.1
2017-Apr-22 11:49N 51°05' E 001°50'0 0.1
2017-Apr-22 11:28N 51°05' E 001°50'0 0.2
2017-Apr-22 10:55N 51°05' E 001°50'0 0.0
2017-Apr-22 10:28N 51°05' E 001°50'0 0.0
2017-Apr-22 09:55N 51°05' E 001°50'0 0.0
2017-Apr-22 09:28N 51°05' E 001°50'0 0.0
2017-Apr-22 08:58N 51°05' E 001°50'0 0.0
2017-Apr-22 08:28N 51°05' E 001°50'0 0.0
2017-Apr-22 07:58N 51°05' E 001°50'0 0.1
2017-Apr-22 07:28N 51°05' E 001°50'0 0.2
2017-Apr-22 06:58N 51°05' E 001°50'0 0.0
2017-Apr-22 06:25N 51°05' E 001°50'0 0.0
2017-Apr-22 05:58N 51°05' E 001°50'0 0.0
2017-Apr-22 05:22N 51°05' E 001°50'0 0.0
2017-Apr-22 04:58N 51°05' E 001°50'0 0.0
2017-Apr-22 04:28N 51°05' E 001°50'0 0.1
2017-Apr-22 03:58N 51°05' E 001°50'0 0.0
2017-Apr-22 03:22N 51°05' E 001°50'0 0.0
2017-Apr-22 02:55N 51°05' E 001°50'0 0.0
2017-Apr-22 02:28N 51°05' E 001°50'0 0.0
2017-Apr-22 01:55N 51°05' E 001°50'0 0.0
2017-Apr-22 01:28N 51°05' E 001°50'0 0.1
2017-Apr-22 00:58N 51°05' E 001°50'0 0.1
2017-Apr-22 00:28N 51°05' E 001°50'0 0.1
2017-Apr-21 23:58N 51°05' E 001°50'0 0.0
2017-Apr-21 23:28N 51°05' E 001°50'0 0.0
2017-Apr-21 22:58N 51°05' E 001°50'0 0.0
2017-Apr-21 22:28N 51°05' E 001°50'0 0.0
2017-Apr-21 21:58N 51°05' E 001°50'0 0.0
2017-Apr-21 21:28N 51°05' E 001°50'0 0.0
2017-Apr-21 20:55N 51°05' E 001°50'0 0.0
2017-Apr-21 20:28N 51°05' E 001°50'0 0.0
2017-Apr-21 19:58N 51°05' E 001°50'0 0.0
2017-Apr-21 19:28N 51°05' E 001°50'0 0.0
2017-Apr-21 18:58N 51°05' E 001°50'0 0.0
2017-Apr-21 18:28N 51°05' E 001°50'0 0.0
2017-Apr-21 17:58N 51°05' E 001°50'0 0.0
2017-Apr-21 17:28N 51°05' E 001°50'0 0.0
2017-Apr-21 16:58N 51°05' E 001°50'0 0.2
2017-Apr-21 16:28N 51°05' E 001°50'0 0.0
2017-Apr-21 15:58N 51°05' E 001°50'0 0.0
2017-Apr-21 15:28N 51°05' E 001°50'0 0.0
2017-Apr-21 14:58N 51°05' E 001°50'0 0.1
2017-Apr-21 14:28N 51°05' E 001°50'0 0.0
2017-Apr-21 13:28N 51°05' E 001°50'0 0.0
2017-Apr-21 12:58N 51°05' E 001°50'0 0.0
2017-Apr-21 12:28N 51°05' E 001°50'0 0.0
2017-Apr-21 11:58N 51°05' E 001°50'0 0.2
2017-Apr-21 11:28N 51°05' E 001°50'0 0.1
2017-Apr-21 10:58N 51°05' E 001°50'0 0.0
2017-Apr-21 10:28N 51°05' E 001°50'0 0.0
2017-Apr-21 09:58N 51°05' E 001°50'0 0.0
2017-Apr-21 09:28N 51°05' E 001°50'0 0.0
2017-Apr-21 08:58N 51°05' E 001°50'0 0.0
2017-Apr-21 08:28N 51°05' E 001°50'0 0.0
2017-Apr-21 07:58N 51°05' E 001°50'0 0.0
2017-Apr-21 07:25N 51°05' E 001°50'0 0.0
2017-Apr-21 06:58N 51°05' E 001°50'0 0.0
2017-Apr-21 06:28N 51°05' E 001°50'0 0.0
2017-Apr-21 05:58N 51°05' E 001°50'0 0.0
2017-Apr-21 05:28N 51°05' E 001°50'0 0.0
2017-Apr-21 04:55N 51°05' E 001°50'0 0.0
2017-Apr-21 04:28N 51°05' E 001°50'0 0.0
2017-Apr-21 03:58N 51°05' E 001°50'0 0.0
2017-Apr-21 03:28N 51°05' E 001°50'0 0.1
2017-Apr-21 02:58N 51°05' E 001°50'0 0.1
2017-Apr-21 02:28N 51°05' E 001°50'0 0.0
2017-Apr-21 01:58N 51°05' E 001°50'0 0.0
2017-Apr-21 01:28N 51°05' E 001°50'0 0.1
2017-Apr-21 00:55N 51°05' E 001°50'0 0.0
2017-Apr-21 00:28N 51°05' E 001°50'0 0.0
2017-Apr-20 23:58N 51°05' E 001°50'0 0.0
2017-Apr-20 23:28N 51°05' E 001°50'0 0.0
2017-Apr-20 22:58N 51°05' E 001°50'0 0.0
2017-Apr-20 22:28N 51°05' E 001°50'0 0.0
2017-Apr-20 21:58N 51°05' E 001°50'0 0.0
2017-Apr-20 21:28N 51°05' E 001°50'0 0.0
2017-Apr-20 20:58N 51°05' E 001°50'0 0.0
2017-Apr-20 20:28N 51°05' E 001°50'0 0.0
2017-Apr-20 19:58N 51°05' E 001°50'0 0.0
2017-Apr-20 19:28N 51°05' E 001°50'0 0.0
2017-Apr-20 18:58N 51°05' E 001°50'0 0.0
2017-Apr-20 18:28N 51°05' E 001°50'0 0.0
2017-Apr-20 17:58N 51°05' E 001°50'0 0.0
2017-Apr-20 17:28N 51°05' E 001°50'0 0.0
2017-Apr-20 16:58N 51°05' E 001°50'0 0.0
2017-Apr-20 16:28N 51°05' E 001°50'0 0.0
2017-Apr-20 15:58N 51°05' E 001°50'0 0.0
2017-Apr-20 15:28N 51°05' E 001°50'0 0.1
2017-Apr-20 14:58N 51°05' E 001°50'0 0.1
2017-Apr-20 13:58N 51°05' E 001°50'0 0.0
2017-Apr-20 13:28N 51°05' E 001°50'0 0.0
2017-Apr-20 12:58N 51°05' E 001°50'0 0.0
2017-Apr-20 12:28N 51°05' E 001°50'0 0.0
2017-Apr-20 11:58N 51°05' E 001°50'0 0.0
2017-Apr-20 11:25N 51°05' E 001°50'0 0.1
2017-Apr-20 11:00N 51°05' E 001°50'1 2.4
2017-Apr-20 10:30N 51°04' E 001°51'612.4
2017-Apr-20 10:00N 51°03' E 002°01'713.0
2017-Apr-20 09:27N 51°03' E 002°12'612.7
2017-Apr-20 09:00N 51°04' E 002°21'1 2.1
2017-Apr-20 08:30N 51°03' E 002°22'2 3.6
2017-Apr-20 08:00N 51°03' E 002°19'2 4.7
2017-Apr-20 07:29N 51°02' E 002°16'0 0.0
2017-Apr-20 06:53N 51°02' E 002°16'0 0.0
2017-Apr-20 06:29N 51°02' E 002°16'0 0.0
2017-Apr-20 05:59N 51°02' E 002°16'0 0.0
2017-Apr-20 05:29N 51°02' E 002°16'0 0.0
2017-Apr-20 04:59N 51°02' E 002°16'0 0.0
2017-Apr-20 04:29N 51°02' E 002°16'0 0.0
2017-Apr-20 03:59N 51°02' E 002°16'0 0.0
2017-Apr-20 03:29N 51°02' E 002°16'0 0.0
2017-Apr-20 02:59N 51°02' E 002°16'0 0.0
2017-Apr-20 02:29N 51°02' E 002°16'0 0.0
2017-Apr-20 01:56N 51°02' E 002°16'0 0.0
2017-Apr-20 01:29N 51°02' E 002°16'0 0.0
2017-Apr-20 00:59N 51°02' E 002°16'0 0.0
2017-Apr-20 00:29N 51°02' E 002°16'0 0.0
2017-Apr-19 23:59N 51°02' E 002°16'0 0.0
2017-Apr-19 23:29N 51°02' E 002°16'0 0.0
2017-Apr-19 22:59N 51°02' E 002°16'0 0.0
2017-Apr-19 22:29N 51°02' E 002°16'0 0.0
2017-Apr-19 21:59N 51°02' E 002°16'0 0.0
2017-Apr-19 21:29N 51°02' E 002°16'0 0.0
2017-Apr-19 20:53N 51°02' E 002°16'0 0.0
2017-Apr-19 20:29N 51°02' E 002°16'0 0.0
2017-Apr-19 19:59N 51°02' E 002°16'0 0.0
2017-Apr-19 19:29N 51°02' E 002°16'0 0.0
2017-Apr-19 18:56N 51°02' E 002°16'0 0.0
2017-Apr-19 18:29N 51°02' E 002°16'0 0.0
2017-Apr-19 17:59N 51°02' E 002°16'0 0.0
2017-Apr-19 17:26N 51°02' E 002°16'0 0.0
2017-Apr-19 16:59N 51°02' E 002°16'0 0.0
2017-Apr-19 16:30N 51°02' E 002°16'0 0.0
2017-Apr-19 15:59N 51°02' E 002°16'0 0.0
2017-Apr-19 15:29N 51°02' E 002°16'0 0.0
2017-Apr-19 14:59N 51°02' E 002°16'0 0.0
2017-Apr-19 14:29N 51°02' E 002°16'0 0.0
2017-Apr-19 13:23N 51°02' E 002°16'0 0.0
2017-Apr-19 12:59N 51°02' E 002°16'0 0.0
2017-Apr-19 12:29N 51°02' E 002°16'0 0.0
2017-Apr-19 11:59N 51°02' E 002°16'0 0.0
2017-Apr-19 11:29N 51°02' E 002°16'0 0.0
2017-Apr-19 10:59N 51°02' E 002°16'0 0.0
2017-Apr-19 10:29N 51°02' E 002°16'0 0.0
2017-Apr-19 09:59N 51°02' E 002°16'0 0.0
2017-Apr-19 09:29N 51°02' E 002°16'0 0.0
2017-Apr-19 08:59N 51°02' E 002°16'0 0.0
2017-Apr-19 08:29N 51°02' E 002°16'0 0.0
2017-Apr-19 07:59N 51°02' E 002°16'0 0.0
2017-Apr-19 07:29N 51°02' E 002°16'0 0.0
2017-Apr-19 06:59N 51°02' E 002°16'0 0.0
2017-Apr-19 06:30N 51°02' E 002°16'0 0.0
2017-Apr-19 05:59N 51°02' E 002°16'0 0.0
2017-Apr-19 05:29N 51°02' E 002°16'0 0.0
2017-Apr-19 04:59N 51°02' E 002°16'0 0.0
2017-Apr-19 04:26N 51°02' E 002°16'0 0.0
2017-Apr-19 03:59N 51°02' E 002°16'0 0.0
2017-Apr-19 03:26N 51°02' E 002°16'0 0.0
2017-Apr-19 02:59N 51°02' E 002°16'0 0.0
2017-Apr-19 02:29N 51°02' E 002°16'0 0.0
2017-Apr-19 01:59N 51°02' E 002°16'0 0.0
2017-Apr-19 01:29N 51°02' E 002°16'0 0.0
2017-Apr-19 00:57N 51°02' E 002°16'0 0.5
2017-Apr-19 00:30N 51°02' E 002°16'3 5.7
2017-Apr-18 23:59N 51°03' E 002°20'0 0.4
2017-Apr-18 23:30N 51°03' E 002°20'1 1.9
2017-Apr-18 23:00N 51°04' E 002°19'511.0
2017-Apr-18 22:31N 51°03' E 002°10'510.6
2017-Apr-18 22:00N 51°03' E 002°02'510.7
2017-Apr-18 21:30N 51°02' E 001°54'5 9.9
2017-Apr-18 21:00N 51°04' E 001°46'5 9.8
2017-Apr-18 20:31N 51°07' E 001°41'3 6.5
2017-Apr-18 20:01N 51°10' E 001°42'4 8.3
2017-Apr-18 19:31N 51°13' E 001°46'4 8.8
2017-Apr-18 19:00N 51°17' E 001°51'611.4
2017-Apr-18 18:31N 51°22' E 001°55'611.7
2017-Apr-18 18:01N 51°27' E 002°00'611.8
2017-Apr-18 17:30N 51°31' E 002°06'611.9
2017-Apr-18 16:58N 51°37' E 002°12'611.4
2017-Apr-18 16:28N 51°42' E 002°16'2012.9
2017-Apr-18 14:57N 52°01' E 002°12'613.8
2017-Apr-18 14:30N 52°07' E 002°12'2913.6
2017-Apr-18 12:23N 52°36' E 002°03'514.1
2017-Apr-18 12:01N 52°40' E 001°59'714.1
2017-Apr-18 11:31N 52°46' E 001°52'714.3
2017-Apr-18 11:01N 52°51' E 001°43'713.5
2017-Apr-18 10:30N 52°55' E 001°35'713.7
2017-Apr-18 10:00N 53°01' E 001°28'713.4
2017-Apr-18 09:30N 53°06' E 001°22'713.2
2017-Apr-18 09:00N 53°12' E 001°16'5612.6
2017-Apr-18 04:35N 53°58' E 000°24'112.2
2017-Apr-18 04:31N 53°59' E 000°23'611.8
2017-Apr-18 04:00N 54°03' E 000°16'611.6
2017-Apr-18 03:31N 54°07' E 000°09'611.6
2017-Apr-18 03:00N 54°12' E 000°03'611.5
2017-Apr-18 02:30N 54°16' W 000°04'611.7
2017-Apr-18 02:01N 54°20' W 000°11'611.5
2017-Apr-18 01:30N 54°24' W 000°18'611.5
2017-Apr-18 01:00N 54°28' W 000°25'5 0.2
2017-Apr-17 01:22N 54°32' W 000°30'3 9.6
2017-Apr-17 01:00N 54°30' W 000°25'5 9.6
2017-Apr-17 00:30N 54°26' W 000°20'5 9.6
2017-Apr-17 00:00N 54°23' W 000°14'5 9.9
2017-Apr-16 23:30N 54°19' W 000°08'510.1
2017-Apr-16 23:00N 54°15' W 000°02'510.3
2017-Apr-16 22:30N 54°12' E 000°04'510.5
2017-Apr-16 22:00N 54°08' E 000°10'612.7
2017-Apr-16 21:30N 54°03' E 000°18'5512.5
2017-Apr-16 17:08N 53°19' E 001°11'214.5
2017-Apr-16 17:00N 53°17' E 001°13'714.7
2017-Apr-16 16:30N 53°11' E 001°18'714.9
2017-Apr-16 16:00N 53°04' E 001°25'714.9
2017-Apr-16 15:30N 52°58' E 001°32'714.7
2017-Apr-16 15:00N 52°53' E 001°40'1313.4
2017-Apr-16 14:00N 52°43' E 001°56'7711.1
2017-Apr-16 07:05N 51°44' E 003°16'111.6
2017-Apr-16 06:59N 51°43' E 003°16'613.2
2017-Apr-16 06:30N 51°38' E 003°22'713.8
2017-Apr-16 06:01N 51°32' E 003°26'713.9
2017-Apr-16 05:30N 51°27' E 003°34'4 8.7
2017-Apr-16 05:00N 51°26' E 003°41'611.6
2017-Apr-16 04:31N 51°22' E 003°46'510.1
2017-Apr-16 04:00N 51°22' E 003°54'5 9.9
2017-Apr-16 03:31N 51°26' E 003°59'4 7.7
2017-Apr-16 03:01N 51°23' E 004°03'5 9.0
2017-Apr-16 02:31N 51°23' E 004°10'4 8.0
2017-Apr-16 02:01N 51°21' E 004°15'1 2.6
2017-Apr-16 01:30N 51°21' E 004°17'1 1.8
2017-Apr-16 01:00N 51°20' E 004°18'3 6.8
2017-Apr-16 00:31N 51°17' E 004°20'1 2.6
2017-Apr-15 23:59N 51°16' E 004°21'0 0.0
2017-Apr-15 23:26N 51°16' E 004°21'0 0.0
2017-Apr-15 22:59N 51°16' E 004°21'0 0.0
2017-Apr-15 22:29N 51°16' E 004°21'0 0.0
2017-Apr-15 21:59N 51°16' E 004°21'0 0.0
2017-Apr-15 21:29N 51°16' E 004°21'0 0.0
2017-Apr-15 20:59N 51°16' E 004°21'  
Track history (hours):
 
Tides and Currents Weather Stations Pressure Air Temp Water Temp Dewpoint Dewpoint Depression Visibility Wind Speed Wind Dir Waves Ship Positions

LS Concorde

Last reported at 2017-Apr-25 20:37 UTC. Time now 2017-Apr-26 04:15 UTC.
Position N 52°03' E 003°37'.

Length 99 m; draft 6.1 m.

Type: Tanker. MMSI: 236329000.

Date/timePositionNaut miles runAvg speedWind from/ knotsBaromVisibWave heightAir tempDewpointWater temp
2017-Apr-25 20:37N 52°03' E 003°37'112.1
2017-Apr-25 20:30N 52°03' E 003°39'611.8
2017-Apr-25 20:00N 52°04' E 003°48'4 8.9
2017-Apr-25 19:30N 52°02' E 003°55'510.1
2017-Apr-25 19:00N 51°60' E 004°02'612.9
2017-Apr-25 18:30N 51°57' E 004°11'510.9
2017-Apr-25 18:00N 51°53' E 004°18'1 1.2
2017-Apr-25 17:30N 51°53' E 004°17'0 0.0
2017-Apr-25 17:00N 51°53' E 004°17'0 0.0
2017-Apr-25 16:30N 51°53' E 004°17'0 0.0
2017-Apr-25 16:00N 51°53' E 004°17'0 0.0
2017-Apr-25 15:30N 51°53' E 004°17'0 0.0
2017-Apr-25 15:00N 51°53' E 004°17'0 0.0
2017-Apr-25 14:00N 51°53' E 004°17'0 0.0
2017-Apr-25 13:30N 51°53' E 004°17'0 0.0
2017-Apr-25 13:00N 51°53' E 004°17'0 0.0
2017-Apr-25 12:30N 51°53' E 004°17'0 0.0
2017-Apr-25 12:00N 51°53' E 004°17'0 0.0
2017-Apr-25 11:30N 51°53' E 004°17'0 0.0
2017-Apr-25 11:00N 51°53' E 004°17'0 0.0
2017-Apr-25 10:30N 51°53' E 004°17'0 0.0
2017-Apr-25 10:00N 51°53' E 004°17'0 0.0
2017-Apr-25 09:30N 51°53' E 004°17'0 0.0
2017-Apr-25 09:00N 51°53' E 004°17'0 0.0
2017-Apr-25 08:24N 51°53' E 004°17'0 0.0
2017-Apr-25 08:00N 51°53' E 004°17'0 0.0
2017-Apr-25 07:27N 51°53' E 004°17'0 0.0
2017-Apr-25 07:00N 51°53' E 004°17'0 0.0
2017-Apr-25 06:30N 51°53' E 004°17'0 0.0
2017-Apr-25 06:00N 51°53' E 004°17'0 0.0
2017-Apr-25 05:30N 51°53' E 004°17'0 0.0
2017-Apr-25 05:00N 51°53' E 004°17'0 0.0
2017-Apr-25 04:30N 51°53' E 004°17'0 0.0
2017-Apr-25 04:00N 51°53' E 004°17'0 0.0
2017-Apr-25 03:30N 51°53' E 004°17'0 0.0
2017-Apr-25 03:00N 51°53' E 004°17'0 0.0
2017-Apr-25 02:30N 51°53' E 004°17'0 0.0
2017-Apr-25 02:00N 51°53' E 004°17'0 0.0
2017-Apr-25 01:30N 51°53' E 004°17'0 0.0
2017-Apr-25 01:00N 51°53' E 004°17'0 0.0
2017-Apr-25 00:30N 51°53' E 004°17'0 0.0
2017-Apr-25 00:00N 51°53' E 004°17'0 0.0
2017-Apr-24 23:30N 51°53' E 004°17'0 0.0
2017-Apr-24 23:00N 51°53' E 004°17'0 0.0
2017-Apr-24 22:30N 51°53' E 004°17'0 0.0
2017-Apr-24 22:00N 51°53' E 004°17'0 0.0
2017-Apr-24 21:30N 51°53' E 004°17'0 0.0
2017-Apr-24 21:00N 51°53' E 004°17'0 0.0
2017-Apr-24 20:30N 51°53' E 004°17'0 0.0
2017-Apr-24 20:00N 51°53' E 004°17'0 0.0
2017-Apr-24 19:30N 51°53' E 004°17'0 0.0
2017-Apr-24 19:00N 51°53' E 004°17'0 0.0
2017-Apr-24 18:30N 51°53' E 004°17'1 1.1
2017-Apr-24 18:00N 51°53' E 004°18'3 5.6
2017-Apr-24 17:30N 51°55' E 004°14'510.9
2017-Apr-24 17:00N 51°58' E 004°07'611.8
2017-Apr-24 16:30N 52°00' E 003°58'611.4
2017-Apr-24 16:00N 52°00' E 003°49'4 8.1
2017-Apr-24 15:30N 51°57' E 003°45'0 0.4
2017-Apr-24 15:00N 51°57' E 003°45'0 0.0
2017-Apr-24 14:30N 51°57' E 003°45'0 0.0
2017-Apr-24 13:30N 51°57' E 003°45'0 0.0
2017-Apr-24 13:00N 51°57' E 003°45'0 0.0
2017-Apr-24 12:30N 51°57' E 003°45'0 0.0
2017-Apr-24 12:00N 51°57' E 003°45'0 0.0
2017-Apr-24 11:30N 51°57' E 003°45'0 0.0
2017-Apr-24 11:00N 51°57' E 003°45'0 0.0
2017-Apr-24 10:30N 51°57' E 003°45'0 0.0
2017-Apr-24 10:00N 51°57' E 003°45'0 0.0
2017-Apr-24 09:30N 51°57' E 003°45'0 0.1
2017-Apr-24 09:00N 51°57' E 003°45'0 0.1
2017-Apr-24 08:30N 51°57' E 003°45'0 0.0
2017-Apr-24 08:01N 51°57' E 003°45'0 0.0
2017-Apr-24 07:30N 51°57' E 003°45'0 0.0
2017-Apr-24 07:00N 51°57' E 003°45'0 0.0
2017-Apr-24 06:30N 51°57' E 003°45'0 0.1
2017-Apr-24 06:00N 51°57' E 003°45'0 0.1
2017-Apr-24 05:30N 51°57' E 003°45'0 0.1
2017-Apr-24 05:00N 51°57' E 003°45'0 0.0
2017-Apr-24 04:30N 51°57' E 003°45'0 0.0
2017-Apr-24 04:00N 51°57' E 003°45'0 0.0
2017-Apr-24 03:29N 51°57' E 003°45'0 0.0
2017-Apr-24 03:00N 51°57' E 003°45'0 0.0
2017-Apr-24 02:30N 51°57' E 003°45'0 0.0
2017-Apr-24 02:00N 51°57' E 003°45'0 0.0
2017-Apr-24 01:30N 51°57' E 003°45'0 0.0
2017-Apr-24 01:00N 51°57' E 003°45'0 0.0
2017-Apr-24 00:30N 51°57' E 003°45'0 0.0
2017-Apr-24 00:00N 51°57' E 003°45'0 0.0
2017-Apr-23 23:30N 51°57' E 003°45'0 0.0
2017-Apr-23 23:00N 51°57' E 003°45'0 0.0
2017-Apr-23 22:30N 51°57' E 003°45'0 0.1
2017-Apr-23 21:57N 51°57' E 003°45'0 0.1
2017-Apr-23 21:30N 51°57' E 003°45'0 0.0
2017-Apr-23 21:00N 51°57' E 003°45'0 0.0
2017-Apr-23 20:30N 51°57' E 003°45'0 0.0
2017-Apr-23 20:00N 51°57' E 003°45'0 0.0
2017-Apr-23 19:30N 51°57' E 003°45'0 0.0
2017-Apr-23 19:00N 51°57' E 003°45'0 0.0
2017-Apr-23 18:30N 51°57' E 003°45'0 0.0
2017-Apr-23 18:00N 51°57' E 003°45'0 0.0
2017-Apr-23 17:30N 51°57' E 003°45'0 0.1
2017-Apr-23 17:00N 51°57' E 003°45'0 0.0
2017-Apr-23 16:30N 51°57' E 003°45'0 0.0
2017-Apr-23 16:00N 51°57' E 003°45'0 0.1
2017-Apr-23 15:29N 51°57' E 003°45'0 0.1
2017-Apr-23 15:00N 51°57' E 003°45'0 0.0
2017-Apr-23 14:00N 51°57' E 003°45'0 0.0
2017-Apr-23 13:30N 51°57' E 003°45'0 0.0
2017-Apr-23 13:00N 51°57' E 003°45'0 0.0
2017-Apr-23 12:30N 51°57' E 003°45'0 0.0
2017-Apr-23 12:00N 51°57' E 003°45'0 0.0
2017-Apr-23 11:30N 51°57' E 003°45'0 0.0
2017-Apr-23 11:00N 51°57' E 003°45'0 0.0
2017-Apr-23 10:30N 51°57' E 003°45'0 0.2
2017-Apr-23 10:00N 51°57' E 003°45'0 0.1
2017-Apr-23 09:30N 51°57' E 003°45'0 0.0
2017-Apr-23 09:00N 51°57' E 003°45'0 0.0
2017-Apr-23 08:30N 51°57' E 003°45'0 0.0
2017-Apr-23 08:00N 51°57' E 003°45'0 0.0
2017-Apr-23 07:30N 51°57' E 003°45'0 0.0
2017-Apr-23 07:00N 51°57' E 003°45'0 0.0
2017-Apr-23 06:30N 51°57' E 003°45'0 0.0
2017-Apr-23 06:00N 51°57' E 003°45'0 0.0
2017-Apr-23 05:30N 51°57' E 003°45'1 2.6
2017-Apr-23 05:00N 51°57' E 003°43'55 5.9
2017-Apr-22 19:49N 51°34' E 002°22'2 6.8
2017-Apr-22 19:30N 51°33' E 002°20'3 6.4
2017-Apr-22 18:59N 51°30' E 002°17'3 5.9
2017-Apr-22 18:30N 51°28' E 002°14'3 5.3
2017-Apr-22 18:00N 51°26' E 002°11'2 5.0
2017-Apr-22 17:30N 51°24' E 002°08'3 5.3
2017-Apr-22 17:00N 51°21' E 002°07'3 5.6
2017-Apr-22 16:31N 51°19' E 002°06'3 5.6
2017-Apr-22 16:00N 51°16' E 002°05'3 5.2
2017-Apr-22 15:30N 51°14' E 002°03'3 5.1
2017-Apr-22 15:00N 51°12' E 001°60'3 5.6
2017-Apr-22 14:30N 51°11' E 001°56'6 5.6
2017-Apr-22 13:30N 51°08' E 001°48'3 6.6
2017-Apr-22 13:00N 51°05' E 001°46'3 5.6
2017-Apr-22 12:31N 51°05' E 001°50'0 0.1
2017-Apr-22 11:49N 51°05' E 001°50'0 0.1
2017-Apr-22 11:28N 51°05' E 001°50'0 0.2
2017-Apr-22 10:55N 51°05' E 001°50'0 0.0
2017-Apr-22 10:28N 51°05' E 001°50'0 0.0
2017-Apr-22 09:55N 51°05' E 001°50'0 0.0
2017-Apr-22 09:28N 51°05' E 001°50'0 0.0
2017-Apr-22 08:58N 51°05' E 001°50'0 0.0
2017-Apr-22 08:28N 51°05' E 001°50'0 0.0
2017-Apr-22 07:58N 51°05' E 001°50'0 0.1
2017-Apr-22 07:28N 51°05' E 001°50'0 0.2
2017-Apr-22 06:58N 51°05' E 001°50'0 0.0
2017-Apr-22 06:25N 51°05' E 001°50'0 0.0
2017-Apr-22 05:58N 51°05' E 001°50'0 0.0
2017-Apr-22 05:22N 51°05' E 001°50'0 0.0
2017-Apr-22 04:58N 51°05' E 001°50'0 0.0
2017-Apr-22 04:28N 51°05' E 001°50'0 0.1
2017-Apr-22 03:58N 51°05' E 001°50'0 0.0
2017-Apr-22 03:22N 51°05' E 001°50'0 0.0
2017-Apr-22 02:55N 51°05' E 001°50'0 0.0
2017-Apr-22 02:28N 51°05' E 001°50'0 0.0
2017-Apr-22 01:55N 51°05' E 001°50'0 0.0
2017-Apr-22 01:28N 51°05' E 001°50'0 0.1
2017-Apr-22 00:58N 51°05' E 001°50'0 0.1
2017-Apr-22 00:28N 51°05' E 001°50'0 0.1
2017-Apr-21 23:58N 51°05' E 001°50'0 0.0
2017-Apr-21 23:28N 51°05' E 001°50'0 0.0
2017-Apr-21 22:58N 51°05' E 001°50'0 0.0
2017-Apr-21 22:28N 51°05' E 001°50'0 0.0
2017-Apr-21 21:58N 51°05' E 001°50'0 0.0
2017-Apr-21 21:28N 51°05' E 001°50'0 0.0
2017-Apr-21 20:55N 51°05' E 001°50'0 0.0
2017-Apr-21 20:28N 51°05' E 001°50'0 0.0
2017-Apr-21 19:58N 51°05' E 001°50'0 0.0
2017-Apr-21 19:28N 51°05' E 001°50'0 0.0
2017-Apr-21 18:58N 51°05' E 001°50'0 0.0
2017-Apr-21 18:28N 51°05' E 001°50'0 0.0
2017-Apr-21 17:58N 51°05' E 001°50'0 0.0
2017-Apr-21 17:28N 51°05' E 001°50'0 0.0
2017-Apr-21 16:58N 51°05' E 001°50'0 0.2
2017-Apr-21 16:28N 51°05' E 001°50'0 0.0
2017-Apr-21 15:58N 51°05' E 001°50'0 0.0
2017-Apr-21 15:28N 51°05' E 001°50'0 0.0
2017-Apr-21 14:58N 51°05' E 001°50'0 0.1
2017-Apr-21 14:28N 51°05' E 001°50'0 0.0
2017-Apr-21 13:28N 51°05' E 001°50'0 0.0
2017-Apr-21 12:58N 51°05' E 001°50'0 0.0
2017-Apr-21 12:28N 51°05' E 001°50'0 0.0
2017-Apr-21 11:58N 51°05' E 001°50'0 0.2
2017-Apr-21 11:28N 51°05' E 001°50'0 0.1
2017-Apr-21 10:58N 51°05' E 001°50'0 0.0
2017-Apr-21 10:28N 51°05' E 001°50'0 0.0
2017-Apr-21 09:58N 51°05' E 001°50'0 0.0
2017-Apr-21 09:28N 51°05' E 001°50'0 0.0
2017-Apr-21 08:58N 51°05' E 001°50'0 0.0
2017-Apr-21 08:28N 51°05' E 001°50'0 0.0
2017-Apr-21 07:58N 51°05' E 001°50'0 0.0
2017-Apr-21 07:25N 51°05' E 001°50'0 0.0
2017-Apr-21 06:58N 51°05' E 001°50'0 0.0
2017-Apr-21 06:28N 51°05' E 001°50'0 0.0
2017-Apr-21 05:58N 51°05' E 001°50'0 0.0
2017-Apr-21 05:28N 51°05' E 001°50'0 0.0
2017-Apr-21 04:55N 51°05' E 001°50'0 0.0
2017-Apr-21 04:28N 51°05' E 001°50'0 0.0
2017-Apr-21 03:58N 51°05' E 001°50'0 0.0
2017-Apr-21 03:28N 51°05' E 001°50'0 0.1
2017-Apr-21 02:58N 51°05' E 001°50'0 0.1
2017-Apr-21 02:28N 51°05' E 001°50'0 0.0
2017-Apr-21 01:58N 51°05' E 001°50'0 0.0
2017-Apr-21 01:28N 51°05' E 001°50'0 0.1
2017-Apr-21 00:55N 51°05' E 001°50'0 0.0
2017-Apr-21 00:28N 51°05' E 001°50'0 0.0
2017-Apr-20 23:58N 51°05' E 001°50'0 0.0
2017-Apr-20 23:28N 51°05' E 001°50'0 0.0
2017-Apr-20 22:58N 51°05' E 001°50'0 0.0
2017-Apr-20 22:28N 51°05' E 001°50'0 0.0
2017-Apr-20 21:58N 51°05' E 001°50'0 0.0
2017-Apr-20 21:28N 51°05' E 001°50'0 0.0
2017-Apr-20 20:58N 51°05' E 001°50'0 0.0
2017-Apr-20 20:28N 51°05' E 001°50'0 0.0
2017-Apr-20 19:58N 51°05' E 001°50'0 0.0
2017-Apr-20 19:28N 51°05' E 001°50'0 0.0
2017-Apr-20 18:58N 51°05' E 001°50'0 0.0
2017-Apr-20 18:28N 51°05' E 001°50'0 0.0
2017-Apr-20 17:58N 51°05' E 001°50'0 0.0
2017-Apr-20 17:28N 51°05' E 001°50'0 0.0
2017-Apr-20 16:58N 51°05' E 001°50'0 0.0
2017-Apr-20 16:28N 51°05' E 001°50'0 0.0
2017-Apr-20 15:58N 51°05' E 001°50'0 0.0
2017-Apr-20 15:28N 51°05' E 001°50'0 0.1
2017-Apr-20 14:58N 51°05' E 001°50'0 0.1
2017-Apr-20 13:58N 51°05' E 001°50'0 0.0
2017-Apr-20 13:28N 51°05' E 001°50'0 0.0
2017-Apr-20 12:58N 51°05' E 001°50'0 0.0
2017-Apr-20 12:28N 51°05' E 001°50'0 0.0
2017-Apr-20 11:58N 51°05' E 001°50'0 0.0
2017-Apr-20 11:25N 51°05' E 001°50'0 0.1
2017-Apr-20 11:00N 51°05' E 001°50'1 2.4
2017-Apr-20 10:30N 51°04' E 001°51'612.4
2017-Apr-20 10:00N 51°03' E 002°01'713.0
2017-Apr-20 09:27N 51°03' E 002°12'612.7
2017-Apr-20 09:00N 51°04' E 002°21'1 2.1
2017-Apr-20 08:30N 51°03' E 002°22'2 3.6
2017-Apr-20 08:00N 51°03' E 002°19'2 4.7
2017-Apr-20 07:29N 51°02' E 002°16'0 0.0
2017-Apr-20 06:53N 51°02' E 002°16'0 0.0
2017-Apr-20 06:29N 51°02' E 002°16'0 0.0
2017-Apr-20 05:59N 51°02' E 002°16'0 0.0
2017-Apr-20 05:29N 51°02' E 002°16'0 0.0
2017-Apr-20 04:59N 51°02' E 002°16'0 0.0
2017-Apr-20 04:29N 51°02' E 002°16'0 0.0
2017-Apr-20 03:59N 51°02' E 002°16'0 0.0
2017-Apr-20 03:29N 51°02' E 002°16'0 0.0
2017-Apr-20 02:59N 51°02' E 002°16'0 0.0
2017-Apr-20 02:29N 51°02' E 002°16'0 0.0
2017-Apr-20 01:56N 51°02' E 002°16'0 0.0
2017-Apr-20 01:29N 51°02' E 002°16'0 0.0
2017-Apr-20 00:59N 51°02' E 002°16'0 0.0
2017-Apr-20 00:29N 51°02' E 002°16'0 0.0
2017-Apr-19 23:59N 51°02' E 002°16'0 0.0
2017-Apr-19 23:29N 51°02' E 002°16'0 0.0
2017-Apr-19 22:59N 51°02' E 002°16'0 0.0
2017-Apr-19 22:29N 51°02' E 002°16'0 0.0
2017-Apr-19 21:59N 51°02' E 002°16'0 0.0
2017-Apr-19 21:29N 51°02' E 002°16'0 0.0
2017-Apr-19 20:53N 51°02' E 002°16'0 0.0
2017-Apr-19 20:29N 51°02' E 002°16'0 0.0
2017-Apr-19 19:59N 51°02' E 002°16'0 0.0
2017-Apr-19 19:29N 51°02' E 002°16'0 0.0
2017-Apr-19 18:56N 51°02' E 002°16'0 0.0
2017-Apr-19 18:29N 51°02' E 002°16'0 0.0
2017-Apr-19 17:59N 51°02' E 002°16'0 0.0
2017-Apr-19 17:26N 51°02' E 002°16'0 0.0
2017-Apr-19 16:59N 51°02' E 002°16'0 0.0
2017-Apr-19 16:30N 51°02' E 002°16'0 0.0
2017-Apr-19 15:59N 51°02' E 002°16'0 0.0
2017-Apr-19 15:29N 51°02' E 002°16'0 0.0
2017-Apr-19 14:59N 51°02' E 002°16'0 0.0
2017-Apr-19 14:29N 51°02' E 002°16'0 0.0
2017-Apr-19 13:23N 51°02' E 002°16'0 0.0
2017-Apr-19 12:59N 51°02' E 002°16'0 0.0
2017-Apr-19 12:29N 51°02' E 002°16'0 0.0
2017-Apr-19 11:59N 51°02' E 002°16'0 0.0
2017-Apr-19 11:29N 51°02' E 002°16'0 0.0
2017-Apr-19 10:59N 51°02' E 002°16'0 0.0
2017-Apr-19 10:29N 51°02' E 002°16'0 0.0
2017-Apr-19 09:59N 51°02' E 002°16'0 0.0
2017-Apr-19 09:29N 51°02' E 002°16'0 0.0
2017-Apr-19 08:59N 51°02' E 002°16'0 0.0
2017-Apr-19 08:29N 51°02' E 002°16'0 0.0
2017-Apr-19 07:59N 51°02' E 002°16'0 0.0
2017-Apr-19 07:29N 51°02' E 002°16'0 0.0
2017-Apr-19 06:59N 51°02' E 002°16'0 0.0
2017-Apr-19 06:30N 51°02' E 002°16'0 0.0
2017-Apr-19 05:59N 51°02' E 002°16'0 0.0
2017-Apr-19 05:29N 51°02' E 002°16'0 0.0
2017-Apr-19 04:59N 51°02' E 002°16'0 0.0
2017-Apr-19 04:26N 51°02' E 002°16'0 0.0
2017-Apr-19 03:59N 51°02' E 002°16'0 0.0
2017-Apr-19 03:26N 51°02' E 002°16'0 0.0
2017-Apr-19 02:59N 51°02' E 002°16'0 0.0
2017-Apr-19 02:29N 51°02' E 002°16'0 0.0
2017-Apr-19 01:59N 51°02' E 002°16'0 0.0
2017-Apr-19 01:29N 51°02' E 002°16'0 0.0
2017-Apr-19 00:57N 51°02' E 002°16'0 0.5
2017-Apr-19 00:30N 51°02' E 002°16'3 5.7
2017-Apr-18 23:59N 51°03' E 002°20'0 0.4
2017-Apr-18 23:30N 51°03' E 002°20'1 1.9
2017-Apr-18 23:00N 51°04' E 002°19'511.0
2017-Apr-18 22:31N 51°03' E 002°10'510.6
2017-Apr-18 22:00N 51°03' E 002°02'510.7
2017-Apr-18 21:30N 51°02' E 001°54'5 9.9
2017-Apr-18 21:00N 51°04' E 001°46'5 9.8
2017-Apr-18 20:31N 51°07' E 001°41'3 6.5
2017-Apr-18 20:01N 51°10' E 001°42'4 8.3
2017-Apr-18 19:31N 51°13' E 001°46'4 8.8
2017-Apr-18 19:00N 51°17' E 001°51'611.4
2017-Apr-18 18:31N 51°22' E 001°55'611.7
2017-Apr-18 18:01N 51°27' E 002°00'611.8
2017-Apr-18 17:30N 51°31' E 002°06'611.9
2017-Apr-18 16:58N 51°37' E 002°12'611.4
2017-Apr-18 16:28N 51°42' E 002°16'2012.9
2017-Apr-18 14:57N 52°01' E 002°12'613.8
2017-Apr-18 14:30N 52°07' E 002°12'2913.6
2017-Apr-18 12:23N 52°36' E 002°03'514.1
2017-Apr-18 12:01N 52°40' E 001°59'714.1
2017-Apr-18 11:31N 52°46' E 001°52'714.3
2017-Apr-18 11:01N 52°51' E 001°43'713.5
2017-Apr-18 10:30N 52°55' E 001°35'713.7
2017-Apr-18 10:00N 53°01' E 001°28'713.4
2017-Apr-18 09:30N 53°06' E 001°22'713.2
2017-Apr-18 09:00N 53°12' E 001°16'5612.6
2017-Apr-18 04:35N 53°58' E 000°24'112.2
2017-Apr-18 04:31N 53°59' E 000°23'611.8
2017-Apr-18 04:00N 54°03' E 000°16'611.6
2017-Apr-18 03:31N 54°07' E 000°09'611.6
2017-Apr-18 03:00N 54°12' E 000°03'611.5
2017-Apr-18 02:30N 54°16' W 000°04'611.7
2017-Apr-18 02:01N 54°20' W 000°11'611.5
2017-Apr-18 01:30N 54°24' W 000°18'611.5
2017-Apr-18 01:00N 54°28' W 000°25'5 0.2
2017-Apr-17 01:22N 54°32' W 000°30'3 9.6
2017-Apr-17 01:00N 54°30' W 000°25'5 9.6
2017-Apr-17 00:30N 54°26' W 000°20'5 9.6
2017-Apr-17 00:00N 54°23' W 000°14'5 9.9
2017-Apr-16 23:30N 54°19' W 000°08'510.1
2017-Apr-16 23:00N 54°15' W 000°02'510.3
2017-Apr-16 22:30N 54°12' E 000°04'510.5
2017-Apr-16 22:00N 54°08' E 000°10'612.7
2017-Apr-16 21:30N 54°03' E 000°18'5512.5
2017-Apr-16 17:08N 53°19' E 001°11'214.5
2017-Apr-16 17:00N 53°17' E 001°13'714.7
2017-Apr-16 16:30N 53°11' E 001°18'714.9
2017-Apr-16 16:00N 53°04' E 001°25'714.9
2017-Apr-16 15:30N 52°58' E 001°32'714.7
2017-Apr-16 15:00N 52°53' E 001°40'1313.4
2017-Apr-16 14:00N 52°43' E 001°56'7711.1
2017-Apr-16 07:05N 51°44' E 003°16'111.6
2017-Apr-16 06:59N 51°43' E 003°16'613.2
2017-Apr-16 06:30N 51°38' E 003°22'713.8
2017-Apr-16 06:01N 51°32' E 003°26'713.9
2017-Apr-16 05:30N 51°27' E 003°34'4 8.7
2017-Apr-16 05:00N 51°26' E 003°41'611.6
2017-Apr-16 04:31N 51°22' E 003°46'510.1
2017-Apr-16 04:00N 51°22' E 003°54'5 9.9
2017-Apr-16 03:31N 51°26' E 003°59'4 7.7
2017-Apr-16 03:01N 51°23' E 004°03'5 9.0
2017-Apr-16 02:31N 51°23' E 004°10'4 8.0
2017-Apr-16 02:01N 51°21' E 004°15'1 2.6
2017-Apr-16 01:30N 51°21' E 004°17'1 1.8
2017-Apr-16 01:00N 51°20' E 004°18'3 6.8
2017-Apr-16 00:31N 51°17' E 004°20'1 2.6
2017-Apr-15 23:59N 51°16' E 004°21'0 0.0
2017-Apr-15 23:26N 51°16' E 004°21'0 0.0
2017-Apr-15 22:59N 51°16' E 004°21'0 0.0
2017-Apr-15 22:29N 51°16' E 004°21'0 0.0
2017-Apr-15 21:59N 51°16' E 004°21'0 0.0
2017-Apr-15 21:29N 51°16' E 004°21'0 0.0
2017-Apr-15 20:59N 51°16' E 004°21'  

Dump ship's entire track history